createdAt,value
2023-04-02T00:00:11.652Z,0.20
2023-04-02T00:02:49.287Z,0.70
2023-04-02T00:05:25.451Z,0.30
2023-04-02T00:07:53.820Z,0.30
2023-04-02T00:10:46.675Z,0.63
2023-04-02T00:13:22.850Z,0.40
2023-04-02T00:15:50.582Z,0.80
2023-04-02T00:18:20.659Z,1.20
2023-04-02T00:20:56.402Z,1.50
2023-04-02T00:23:23.623Z,0.60
2023-04-02T00:25:50.516Z,0.80
2023-04-02T00:28:22.682Z,0.40
2023-04-02T00:30:55.329Z,0.20
2023-04-02T00:33:24.426Z,0.25
2023-04-02T00:35:52.607Z,0.20
2023-04-02T00:38:33.027Z,0.10
2023-04-02T00:41:05.384Z,0.20
2023-04-02T00:43:37.107Z,0.20
2023-04-02T00:46:10.615Z,0.20
2023-04-02T00:49:03.671Z,0.20
2023-04-02T00:55:44.019Z,0.28
2023-04-02T00:58:33.169Z,0.30
2023-04-02T01:01:00.327Z,0.25
2023-04-02T01:03:35.365Z,0.30
2023-04-02T01:06:11.381Z,0.30
2023-04-02T01:09:20.732Z,0.45
2023-04-02T01:12:12.827Z,0.50
2023-04-02T01:15:08.831Z,0.60
2023-04-02T01:18:19.647Z,0.60
2023-04-02T01:21:00.217Z,0.63
2023-04-02T01:23:35.819Z,0.60
2023-04-02T01:26:11.557Z,0.50
2023-04-02T01:29:31.887Z,0.47
2023-04-02T01:32:05.708Z,0.52
2023-04-02T01:34:32.690Z,0.50
2023-04-02T01:37:15.678Z,0.65
2023-04-02T01:40:15.925Z,0.47
2023-04-02T01:43:15.902Z,0.50
2023-04-02T01:45:42.818Z,0.50
2023-04-02T01:48:16.906Z,0.40
2023-04-02T01:50:44.879Z,0.30
2023-04-02T01:53:16.553Z,0.43
2023-04-02T01:55:46.426Z,0.30
2023-04-02T01:58:14.421Z,0.30
2023-04-02T02:00:49.830Z,0.40
2023-04-02T02:03:16.935Z,0.70
2023-04-02T02:05:43.861Z,0.52
2023-04-02T02:08:48.368Z,0.55
2023-04-02T02:11:18.917Z,0.50
2023-04-02T02:13:56.838Z,0.40
2023-04-02T02:16:24.008Z,0.50
2023-04-02T02:18:56.443Z,0.80
2023-04-02T02:21:43.791Z,0.60
2023-04-02T02:24:21.094Z,0.60
2023-04-02T02:26:56.192Z,0.73
2023-04-02T02:29:23.078Z,0.50
2023-04-02T02:31:52.984Z,0.65
2023-04-02T02:34:25.072Z,0.55
2023-04-02T02:37:06.853Z,0.50
2023-04-02T02:39:43.032Z,1.13
2023-04-02T02:42:38.941Z,1.42
2023-04-02T02:45:10.304Z,1.25
2023-04-02T02:47:38.102Z,0.57
2023-04-02T02:50:08.682Z,0.57
2023-04-02T02:52:36.696Z,0.50
2023-04-02T02:55:14.647Z,0.57
2023-04-02T02:57:50.206Z,0.50
2023-04-02T03:00:17.400Z,0.70
2023-04-02T03:02:44.495Z,0.68
2023-04-02T03:05:21.507Z,0.75
2023-04-02T03:07:53.336Z,0.82
2023-04-02T03:10:24.159Z,0.85
2023-04-02T03:13:05.877Z,0.80
2023-04-02T03:15:34.677Z,0.90
2023-04-02T03:18:35.664Z,0.82
2023-04-02T03:21:52.312Z,0.63
2023-04-02T03:24:36.944Z,0.98
2023-04-02T03:27:18.261Z,0.70
2023-04-02T03:30:14.694Z,0.93
2023-04-02T03:32:42.400Z,1.05
2023-04-02T03:35:27.625Z,1.52
2023-04-02T03:38:12.766Z,2.65
2023-04-02T03:41:00.619Z,0.73
2023-04-02T03:43:42.573Z,0.80
2023-04-02T03:46:44.360Z,0.90
2023-04-02T03:49:55.144Z,0.80
2023-04-02T03:52:28.842Z,0.70
2023-04-02T03:54:57.276Z,0.80
2023-04-02T03:57:32.457Z,0.65
2023-04-02T04:00:36.811Z,0.80
2023-04-02T04:03:14.476Z,0.60
2023-04-02T04:06:26.813Z,1.00
2023-04-02T04:08:58.269Z,0.90
2023-04-02T04:11:30.459Z,0.95
2023-04-02T04:14:20.346Z,0.95
2023-04-02T04:17:17.463Z,0.70
2023-04-02T04:19:55.009Z,0.85
2023-04-02T04:22:28.839Z,0.63
2023-04-02T04:25:24.041Z,0.80
2023-04-02T04:28:04.862Z,0.70
2023-04-02T04:30:50.663Z,0.80
2023-04-02T04:33:26.358Z,1.20
2023-04-02T04:35:58.484Z,0.70
2023-04-02T04:38:33.089Z,1.10
2023-04-02T04:41:11.648Z,0.90
2023-04-02T04:43:45.820Z,0.80
2023-04-02T04:46:38.020Z,0.65
2023-04-02T04:49:22.588Z,0.85
2023-04-02T04:51:53.264Z,0.70
2023-04-02T04:54:20.169Z,0.68
2023-04-02T04:56:49.980Z,1.00
2023-04-02T04:59:25.864Z,0.90
2023-04-02T05:02:16.411Z,1.17
2023-04-02T05:04:44.551Z,0.98
2023-04-02T05:07:21.705Z,0.77
2023-04-02T05:10:40.641Z,0.90
2023-04-02T05:13:17.614Z,1.00
2023-04-02T05:15:55.759Z,0.77
2023-04-02T05:18:32.432Z,0.93
2023-04-02T05:21:18.324Z,1.10
2023-04-02T05:24:20.068Z,2.63
2023-04-02T05:26:47.106Z,1.30
2023-04-02T05:29:25.027Z,0.90
2023-04-02T05:32:06.837Z,0.90
2023-04-02T05:34:38.242Z,1.00
2023-04-02T05:37:07.054Z,1.00
2023-04-02T05:39:34.200Z,1.05
2023-04-02T05:42:05.703Z,1.10
2023-04-02T05:44:39.260Z,0.90
2023-04-02T05:47:19.064Z,1.15
2023-04-02T05:49:53.829Z,0.95
2023-04-02T05:52:25.727Z,0.88
2023-04-02T05:55:23.679Z,1.92
2023-04-02T05:58:13.473Z,2.45
2023-04-02T06:00:58.228Z,3.67
2023-04-02T06:03:40.513Z,3.67
2023-04-02T06:06:16.311Z,3.53
2023-04-02T06:08:48.225Z,3.60
2023-04-02T06:11:22.121Z,2.92
2023-04-02T06:13:49.027Z,1.70
2023-04-02T06:16:16.031Z,2.00
2023-04-02T06:18:43.063Z,1.45
2023-04-02T06:21:12.073Z,1.08
2023-04-02T06:24:09.659Z,0.93
2023-04-02T06:26:41.536Z,0.98
2023-04-02T06:29:28.087Z,0.90
2023-04-02T06:32:02.350Z,0.93
2023-04-02T06:34:30.382Z,1.17
2023-04-02T06:37:00.602Z,1.38
2023-04-02T06:39:27.722Z,1.13
2023-04-02T06:42:03.452Z,1.25
2023-04-02T06:44:35.822Z,1.13
2023-04-02T06:47:33.532Z,1.20
2023-04-02T06:50:21.368Z,0.95
2023-04-02T06:52:53.875Z,1.55
2023-04-02T06:55:20.791Z,1.30
2023-04-02T06:57:48.172Z,1.15
2023-04-02T07:00:36.989Z,1.20
2023-04-02T07:03:07.631Z,1.13
2023-04-02T07:05:34.928Z,1.20
2023-04-02T07:08:02.034Z,1.27
2023-04-02T07:10:29.004Z,1.58
2023-04-02T07:12:55.953Z,1.48
2023-04-02T07:15:22.909Z,1.52
2023-04-02T07:17:50.211Z,2.08
2023-04-02T07:20:28.625Z,1.60
2023-04-02T07:22:55.980Z,1.40
2023-04-02T07:25:24.168Z,1.23
2023-04-02T07:27:51.620Z,1.13
2023-04-02T07:30:18.744Z,1.50
2023-04-02T07:32:45.791Z,1.23
2023-04-02T07:35:12.765Z,1.38
2023-04-02T07:37:39.930Z,1.45
2023-04-02T07:40:16.846Z,1.20
2023-04-02T07:42:44.168Z,1.05
2023-04-02T07:45:11.514Z,1.00
2023-04-02T07:47:38.568Z,0.88
2023-04-02T07:50:06.477Z,0.40
2023-04-02T07:52:33.508Z,0.22
2023-04-02T07:55:00.563Z,0.30
2023-04-02T07:57:27.698Z,0.50
2023-04-02T07:59:54.790Z,0.40
2023-04-02T08:02:22.041Z,0.47
2023-04-02T08:04:50.184Z,0.40
2023-04-02T08:07:18.261Z,0.90
2023-04-02T08:09:45.267Z,0.43
2023-04-02T08:12:15.416Z,0.43
2023-04-02T08:14:42.348Z,0.40
2023-04-02T08:17:09.424Z,0.52
2023-04-02T08:19:47.723Z,0.30
2023-04-02T08:22:18.877Z,0.40
2023-04-02T08:24:45.843Z,0.30
2023-04-02T08:27:14.408Z,0.40
2023-04-02T08:29:41.385Z,0.30
2023-04-02T08:32:10.468Z,0.50
2023-04-02T08:34:37.376Z,0.40
2023-04-02T08:37:04.279Z,0.40
2023-04-02T08:39:31.216Z,0.60
2023-04-02T08:42:26.638Z,1.00
2023-04-02T08:45:25.024Z,0.60
2023-04-02T08:48:04.939Z,2.03
2023-04-02T08:50:32.823Z,0.40
2023-04-02T08:53:00.715Z,0.55
2023-04-02T08:55:30.301Z,0.40
2023-04-02T08:58:34.427Z,0.50
2023-04-02T09:01:02.261Z,0.40
2023-04-02T09:03:40.632Z,0.30
2023-04-02T09:06:09.168Z,0.57
2023-04-02T09:08:36.293Z,0.30
2023-04-02T09:11:48.368Z,0.30
2023-04-02T09:14:42.960Z,0.40
2023-04-02T09:17:20.238Z,0.47
2023-04-02T09:20:20.738Z,0.30
2023-04-02T09:22:49.397Z,0.77
2023-04-02T09:25:23.133Z,0.40
2023-04-02T09:27:51.287Z,0.68
2023-04-02T09:30:33.106Z,0.40
2023-04-02T09:33:04.613Z,0.30
2023-04-02T09:35:32.542Z,0.50
2023-04-02T09:38:29.519Z,0.50
2023-04-02T09:41:04.077Z,0.30
2023-04-02T09:43:35.106Z,0.50
2023-04-02T09:46:24.372Z,0.22
2023-04-02T09:48:54.497Z,0.43
2023-04-02T09:51:23.298Z,0.70
2023-04-02T09:54:12.572Z,0.50
2023-04-02T09:56:40.608Z,0.70
2023-04-02T09:59:15.390Z,0.35
2023-04-02T10:01:59.540Z,0.40
2023-04-02T10:04:43.373Z,0.50
2023-04-02T10:07:49.446Z,0.47
2023-04-02T10:10:32.669Z,0.60
2023-04-02T10:13:30.082Z,0.43
2023-04-02T10:16:05.619Z,1.25
2023-04-02T10:18:49.167Z,1.70
2023-04-02T10:21:25.055Z,1.95
2023-04-02T10:23:52.098Z,0.47
2023-04-02T10:26:59.507Z,0.60
2023-04-02T10:30:09.465Z,0.40
2023-04-02T10:32:55.781Z,0.38
2023-04-02T10:36:11.731Z,0.50
2023-04-02T10:39:23.657Z,0.90
2023-04-02T10:42:06.840Z,0.47
2023-04-02T10:44:57.550Z,0.50
2023-04-02T10:47:42.590Z,0.80
2023-04-02T10:50:36.591Z,0.55
2023-04-02T10:53:17.896Z,0.50
2023-04-02T10:55:56.941Z,0.60
2023-04-02T10:58:26.221Z,0.65
2023-04-02T11:01:09.681Z,0.98
2023-04-02T11:03:49.093Z,1.10
2023-04-02T11:06:37.377Z,0.98
2023-04-02T11:09:06.281Z,0.77
2023-04-02T11:11:44.216Z,1.10
2023-04-02T11:14:17.088Z,0.63
2023-04-02T11:16:44.937Z,0.90
2023-04-02T11:19:15.222Z,0.60
2023-04-02T11:22:13.382Z,0.68
2023-04-02T11:24:46.669Z,0.98
2023-04-02T11:27:26.558Z,0.73
2023-04-02T11:30:17.677Z,0.50
2023-04-02T11:32:48.660Z,0.50
2023-04-02T11:35:30.583Z,0.40
2023-04-02T11:38:18.553Z,0.70
2023-04-02T11:41:06.601Z,0.32
2023-04-02T11:43:33.574Z,0.55
2023-04-02T11:46:04.878Z,0.30
2023-04-02T11:48:37.859Z,0.30
2023-04-02T11:51:50.877Z,0.60
2023-04-02T11:54:28.222Z,0.17
2023-04-02T11:57:01.850Z,0.40
2023-04-02T11:59:59.949Z,0.40
2023-04-02T12:02:30.086Z,0.40
2023-04-02T12:05:23.470Z,0.40
2023-04-02T12:08:19.554Z,0.25
2023-04-02T12:10:59.974Z,0.60
2023-04-02T12:13:42.201Z,0.60
2023-04-02T12:16:12.366Z,0.50
2023-04-02T12:18:47.716Z,0.40
2023-04-02T12:21:19.165Z,0.30
2023-04-02T12:23:47.451Z,0.30
2023-04-02T12:26:37.881Z,0.43
2023-04-02T12:29:27.733Z,0.40
2023-04-02T12:31:56.171Z,0.60
2023-04-02T12:34:25.459Z,0.68
2023-04-02T12:36:55.818Z,0.40
2023-04-02T12:39:23.882Z,0.63
2023-04-02T12:41:51.603Z,0.50
2023-04-02T12:44:21.280Z,0.50
2023-04-02T12:46:48.785Z,0.70
2023-04-02T12:49:37.452Z,0.60
2023-04-02T12:52:21.260Z,0.60
2023-04-02T12:54:57.023Z,0.70
2023-04-02T12:57:26.771Z,0.73
2023-04-02T12:59:58.437Z,0.90
2023-04-02T13:02:30.074Z,0.70
2023-04-02T13:05:00.695Z,0.50
2023-04-02T13:07:32.230Z,0.70
2023-04-02T13:10:25.776Z,0.70
2023-04-02T13:13:02.342Z,0.70
2023-04-02T13:15:31.814Z,0.68
2023-04-02T13:18:21.641Z,0.80
2023-04-02T13:21:02.032Z,0.80
2023-04-02T13:23:31.913Z,0.50
2023-04-02T13:26:00.303Z,0.90
2023-04-02T13:28:27.939Z,0.90
2023-04-02T13:30:55.023Z,0.80
2023-04-02T13:33:22.062Z,0.80
2023-04-02T13:35:49.035Z,0.80
2023-04-02T13:38:16.179Z,0.77
2023-04-02T13:40:43.156Z,0.98
2023-04-02T13:43:16.890Z,1.08
2023-04-02T13:45:43.912Z,1.00
2023-04-02T13:48:14.541Z,0.93
2023-04-02T13:50:41.686Z,0.85
2023-04-02T13:53:13.377Z,0.90
2023-04-02T13:55:41.673Z,0.80
2023-04-02T13:58:08.838Z,0.90
2023-04-02T14:00:36.767Z,0.80
2023-04-02T14:03:18.010Z,0.82
2023-04-02T14:06:44.457Z,1.20
2023-04-02T14:09:32.622Z,0.93
2023-04-02T14:12:08.610Z,0.90
2023-04-02T14:15:08.342Z,1.02
2023-04-02T14:17:47.281Z,0.88
2023-04-02T14:20:42.116Z,0.80
2023-04-02T14:23:37.627Z,1.00
2023-04-02T14:26:10.918Z,0.68
2023-04-02T14:29:04.211Z,0.85
2023-04-02T14:31:36.607Z,0.85
2023-04-02T14:34:47.077Z,0.88
2023-04-02T14:37:49.191Z,0.80
2023-04-02T14:40:29.818Z,0.95
2023-04-02T14:43:17.108Z,0.80
2023-04-02T14:45:56.906Z,0.80
2023-04-02T14:48:54.090Z,1.08
2023-04-02T14:51:36.031Z,1.00
2023-04-02T14:54:13.356Z,1.00
2023-04-02T14:56:59.744Z,1.08
2023-04-02T14:59:39.362Z,1.10
2023-04-02T15:02:42.762Z,0.77
2023-04-02T15:05:19.472Z,0.93
2023-04-02T15:08:03.527Z,0.80
2023-04-02T15:10:40.160Z,1.13
2023-04-02T15:13:12.772Z,0.98
2023-04-02T15:15:48.577Z,0.68
2023-04-02T15:18:17.114Z,0.80
2023-04-02T15:21:20.737Z,0.90
2023-04-02T15:24:20.877Z,0.90
2023-04-02T15:27:25.216Z,0.93
2023-04-02T15:30:13.322Z,0.90
2023-04-02T15:32:41.122Z,1.10
2023-04-02T15:35:26.857Z,1.20
2023-04-02T15:38:18.096Z,1.40
2023-04-02T15:43:54.941Z,1.42
2023-04-02T15:46:27.319Z,1.30
2023-04-02T15:49:15.531Z,0.82
2023-04-02T15:52:26.029Z,1.20
2023-04-02T15:55:40.193Z,1.20
2023-04-02T15:58:35.696Z,1.20
2023-04-02T16:01:53.563Z,1.10
2023-04-02T16:05:09.182Z,1.15
2023-04-02T16:07:58.258Z,0.95
2023-04-02T16:10:42.573Z,1.13
2023-04-02T16:13:30.336Z,0.90
2023-04-02T16:16:22.024Z,1.40
2023-04-02T16:19:37.489Z,1.00
2023-04-02T16:22:28.180Z,1.10
2023-04-02T16:25:06.467Z,0.70
2023-04-02T16:27:41.705Z,0.52
2023-04-02T16:30:26.581Z,0.43
2023-04-02T16:33:14.780Z,0.40
2023-04-02T16:35:50.507Z,0.73
2023-04-02T16:38:59.920Z,0.45
2023-04-02T16:42:06.578Z,0.35
2023-04-02T16:45:19.291Z,0.57
2023-04-02T16:48:00.650Z,1.00
2023-04-02T16:51:06.193Z,0.80
2023-04-02T16:54:02.749Z,1.10
2023-04-02T16:57:00.393Z,1.08
2023-04-02T16:59:57.646Z,1.25
2023-04-02T17:03:00.171Z,0.90
2023-04-02T17:06:02.574Z,1.42
2023-04-02T17:09:17.206Z,4.15
2023-04-02T17:11:50.562Z,4.60
2023-04-02T17:14:48.206Z,3.85
2023-04-02T17:17:15.266Z,1.45
2023-04-02T17:19:43.401Z,1.08
2023-04-02T17:22:17.644Z,1.55
2023-04-02T17:25:01.616Z,1.25
2023-04-02T17:27:40.141Z,1.20
2023-04-02T17:30:18.197Z,1.60
2023-04-02T17:32:45.217Z,1.08
2023-04-02T17:35:36.028Z,1.30
2023-04-02T17:38:19.107Z,3.42
2023-04-02T17:40:55.869Z,1.65
2023-04-02T17:43:44.405Z,2.97
2023-04-02T17:46:37.385Z,1.60
2023-04-02T17:49:39.701Z,2.78
2023-04-02T17:52:28.280Z,4.35
2023-04-02T17:55:11.479Z,4.20
2023-04-02T17:57:58.705Z,3.72
2023-04-02T18:00:41.637Z,6.20
2023-04-02T18:03:28.653Z,2.33
2023-04-02T18:06:38.083Z,2.67
2023-04-02T18:09:51.993Z,3.22
2023-04-02T18:12:27.919Z,2.30
2023-04-02T18:15:30.245Z,2.80
2023-04-02T18:18:08.292Z,2.17
2023-04-02T18:20:43.338Z,2.00
2023-04-02T18:23:21.957Z,2.60
2023-04-02T18:26:15.492Z,4.00
2023-04-02T18:29:13.934Z,3.33
2023-04-02T18:31:59.598Z,2.22
2023-04-02T18:34:55.196Z,2.45
2023-04-02T18:37:47.222Z,2.15
2023-04-02T18:40:55.447Z,2.30
2023-04-02T18:43:58.729Z,2.58
2023-04-02T18:47:21.039Z,2.00
2023-04-02T18:49:54.245Z,2.58
2023-04-02T18:52:21.203Z,1.48
2023-04-02T18:55:30.416Z,1.70
2023-04-02T18:58:15.176Z,1.90
2023-04-02T19:00:43.477Z,2.15
2023-04-02T19:03:27.418Z,1.90
2023-04-02T19:06:04.745Z,1.88
2023-04-02T19:08:40.893Z,3.25
2023-04-02T19:11:22.542Z,7.78
2023-04-02T19:13:49.582Z,2.80
2023-04-02T19:16:56.250Z,2.08
2023-04-02T19:19:28.917Z,1.52
2023-04-02T19:22:12.747Z,2.00
2023-04-02T19:24:42.463Z,1.70
2023-04-02T19:27:33.838Z,1.52
2023-04-02T19:30:36.500Z,1.95
2023-04-02T19:33:31.214Z,2.80
2023-04-02T19:36:15.805Z,3.92
2023-04-02T19:39:24.818Z,6.72
2023-04-02T19:42:01.273Z,7.30
2023-04-02T19:44:28.175Z,5.45
2023-04-02T19:46:55.193Z,5.75
2023-04-02T19:49:29.924Z,6.05
2023-04-02T19:51:56.902Z,7.15
2023-04-02T19:54:23.983Z,8.02
2023-04-02T19:56:51.057Z,6.68
2023-04-02T19:59:18.777Z,6.53
2023-04-02T20:01:46.686Z,6.35
2023-04-02T20:04:14.303Z,7.68
2023-04-02T20:06:41.364Z,8.90
2023-04-02T20:09:08.384Z,6.68
2023-04-02T20:11:36.829Z,5.57
2023-04-02T20:14:04.000Z,5.20
2023-04-02T20:16:30.978Z,5.10
2023-04-02T20:18:58.147Z,3.85
2023-04-02T20:21:25.170Z,3.40
2023-04-02T20:23:55.536Z,2.97
2023-04-02T20:26:22.495Z,2.28
2023-04-02T20:28:49.472Z,2.00
2023-04-02T20:31:18.150Z,1.70
2023-04-02T20:33:45.281Z,1.63
2023-04-02T20:36:14.950Z,1.77
2023-04-02T20:38:42.039Z,1.70
2023-04-02T20:41:09.251Z,1.90
2023-04-02T20:43:36.769Z,1.98
2023-04-02T20:46:05.135Z,2.00
2023-04-02T20:48:32.369Z,2.38
2023-04-02T20:51:00.459Z,2.25
2023-04-02T20:53:29.848Z,3.50
2023-04-02T20:56:13.506Z,3.88
2023-04-02T20:58:40.733Z,3.20
2023-04-02T21:01:16.533Z,4.20
2023-04-02T21:03:43.538Z,3.60
2023-04-02T21:06:19.006Z,4.00
2023-04-02T21:08:45.994Z,5.18
2023-04-02T21:11:13.267Z,6.68
2023-04-02T21:13:40.434Z,5.82
2023-04-02T21:16:20.741Z,8.88
2023-04-02T21:18:52.250Z,8.35
2023-04-02T21:21:19.321Z,7.05
2023-04-02T21:23:46.393Z,7.40
2023-04-02T21:26:15.759Z,6.55
2023-04-02T21:28:43.600Z,6.15
2023-04-02T21:31:16.242Z,5.55
2023-04-02T21:33:48.482Z,5.10
2023-04-02T21:36:23.155Z,3.72
2023-04-02T21:38:52.815Z,3.42
2023-04-02T21:41:22.358Z,3.90
2023-04-02T21:43:49.609Z,3.90
2023-04-02T21:46:17.900Z,3.78
2023-04-02T21:48:45.326Z,3.25
2023-04-02T21:51:14.007Z,3.58
2023-04-02T21:53:41.087Z,2.97
2023-04-02T21:56:14.912Z,3.08
2023-04-02T21:58:41.920Z,3.10
2023-04-02T22:01:14.045Z,3.60
2023-04-02T22:03:47.442Z,3.00
2023-04-02T22:06:19.686Z,3.60
2023-04-02T22:08:47.568Z,3.00
2023-04-02T22:11:17.627Z,3.10
2023-04-02T22:13:45.742Z,3.33
2023-04-02T22:16:20.402Z,3.22
2023-04-02T22:18:47.878Z,3.47
2023-04-02T22:21:15.067Z,3.28
2023-04-02T22:23:42.272Z,3.33
2023-04-02T22:26:14.769Z,3.10
2023-04-02T22:28:41.888Z,3.10
2023-04-02T22:31:21.378Z,2.83
2023-04-02T22:33:48.580Z,2.88
2023-04-02T22:36:16.220Z,2.78
2023-04-02T22:38:43.300Z,2.50
2023-04-02T22:41:11.732Z,3.30
2023-04-02T22:43:39.178Z,2.85
2023-04-02T22:46:07.756Z,3.10
2023-04-02T22:48:35.113Z,2.90
2023-04-02T22:51:02.443Z,2.97
2023-04-02T22:53:29.501Z,2.92
2023-04-02T22:56:01.872Z,2.78
2023-04-02T22:58:28.770Z,2.72
2023-04-02T23:00:55.748Z,2.33
2023-04-02T23:03:22.722Z,2.25
2023-04-02T23:06:00.865Z,2.95
2023-04-02T23:08:27.796Z,3.13
2023-04-02T23:11:06.706Z,2.78
2023-04-02T23:13:33.932Z,2.78
2023-04-02T23:16:02.323Z,2.65
2023-04-02T23:18:32.060Z,2.78
2023-04-02T23:20:59.200Z,3.00
2023-04-02T23:23:26.491Z,3.20
2023-04-02T23:26:11.479Z,3.30
2023-04-02T23:28:38.959Z,3.15
2023-04-02T23:31:08.640Z,2.80
2023-04-02T23:33:35.693Z,4.50
2023-04-02T23:36:31.209Z,4.82
2023-04-02T23:39:00.834Z,2.92
2023-04-02T23:41:28.275Z,2.92
2023-04-02T23:43:58.432Z,2.70
2023-04-02T23:46:25.868Z,2.85
2023-04-02T23:48:53.364Z,2.90
2023-04-02T23:51:20.435Z,3.00
2023-04-02T23:53:48.169Z,3.38
2023-04-02T23:56:15.161Z,3.58
2023-04-02T23:58:42.051Z,3.65
